createdAt,value
2023-03-03T00:00:58.536Z,190.60
2023-03-03T00:03:27.319Z,124.82
2023-03-03T00:05:54.569Z,350.13
2023-03-03T00:08:22.721Z,123.53
2023-03-03T00:10:50.080Z,155.68
2023-03-03T00:13:27.038Z,120.75
2023-03-03T00:15:58.206Z,67.70
2023-03-03T00:18:35.596Z,76.00
2023-03-03T00:21:08.976Z,89.40
2023-03-03T00:23:38.646Z,70.15
2023-03-03T00:26:37.120Z,145.70
2023-03-03T00:29:23.245Z,78.60
2023-03-03T00:31:50.399Z,82.78
2023-03-03T00:34:28.361Z,74.75
2023-03-03T00:36:57.379Z,106.65
2023-03-03T00:39:37.432Z,172.38
2023-03-03T00:42:17.224Z,174.65
2023-03-03T00:44:45.137Z,217.75
2023-03-03T00:47:29.269Z,173.10
2023-03-03T00:50:25.056Z,141.32
2023-03-03T00:53:17.078Z,172.32
2023-03-03T00:55:44.874Z,164.27
2023-03-03T00:58:11.723Z,231.00
2023-03-03T01:00:39.578Z,213.57
2023-03-03T01:03:09.312Z,299.75
2023-03-03T01:05:36.804Z,177.38
2023-03-03T01:08:04.476Z,206.45
2023-03-03T01:10:34.373Z,143.95
2023-03-03T01:13:01.294Z,221.45
2023-03-03T01:15:28.194Z,331.00
2023-03-03T01:17:55.603Z,277.45
2023-03-03T01:20:22.868Z,197.43
2023-03-03T01:22:49.737Z,278.25
2023-03-03T01:25:16.733Z,330.15
2023-03-03T01:27:43.536Z,240.48
2023-03-03T01:30:23.150Z,258.83
2023-03-03T01:36:13.614Z,175.63
2023-03-03T01:38:40.376Z,231.55
2023-03-03T01:41:07.155Z,551.92
2023-03-03T01:43:34.366Z,384.52
2023-03-03T01:46:01.169Z,322.27
2023-03-03T01:48:36.773Z,191.68
2023-03-03T01:51:12.355Z,262.20
2023-03-03T01:53:43.095Z,267.27
2023-03-03T01:56:10.665Z,163.25
2023-03-03T01:58:43.381Z,129.57
2023-03-03T02:01:15.755Z,128.50
2023-03-03T02:03:43.974Z,245.15
2023-03-03T02:06:15.508Z,160.57
2023-03-03T02:09:00.202Z,134.60
2023-03-03T02:11:29.666Z,119.43
2023-03-03T02:13:56.434Z,279.02
2023-03-03T02:16:23.383Z,125.40
2023-03-03T02:18:50.318Z,174.98
2023-03-03T02:21:20.087Z,161.82
2023-03-03T02:24:14.093Z,205.63
2023-03-03T02:26:41.916Z,191.13
2023-03-03T02:29:10.196Z,138.07
2023-03-03T02:31:38.475Z,86.93
2023-03-03T02:34:05.496Z,180.73
2023-03-03T02:36:36.221Z,261.55
2023-03-03T02:39:21.401Z,177.93
2023-03-03T02:42:10.210Z,125.28
2023-03-03T02:44:37.079Z,254.35
2023-03-03T02:47:04.192Z,276.05
2023-03-03T02:49:33.193Z,160.75
2023-03-03T02:52:02.046Z,147.93
2023-03-03T02:54:30.940Z,120.43
2023-03-03T02:56:59.245Z,178.40
2023-03-03T02:59:26.105Z,243.15
2023-03-03T03:01:54.522Z,97.53
2023-03-03T03:04:24.445Z,173.05
2023-03-03T03:06:51.972Z,92.13
2023-03-03T03:09:21.223Z,186.32
2023-03-03T03:11:48.042Z,79.57
2023-03-03T03:14:15.609Z,139.25
2023-03-03T03:16:42.566Z,199.85
2023-03-03T03:19:09.630Z,156.80
2023-03-03T03:21:36.444Z,161.32
2023-03-03T03:24:03.536Z,87.60
2023-03-03T03:26:30.554Z,120.75
2023-03-03T03:28:57.658Z,132.40
2023-03-03T03:31:24.506Z,120.20
2023-03-03T03:33:52.682Z,62.65
2023-03-03T03:36:19.881Z,64.00
2023-03-03T03:38:46.703Z,323.95
2023-03-03T03:41:13.927Z,204.73
2023-03-03T03:43:41.199Z,92.53
2023-03-03T03:46:08.664Z,136.38
2023-03-03T03:48:35.702Z,70.75
2023-03-03T03:51:02.591Z,142.98
2023-03-03T03:53:29.386Z,141.27
2023-03-03T03:55:56.444Z,77.28
2023-03-03T03:58:23.298Z,142.55
2023-03-03T04:00:50.071Z,231.48
2023-03-03T04:03:17.060Z,196.27
2023-03-03T04:05:44.433Z,158.90
2023-03-03T04:08:11.806Z,151.38
2023-03-03T04:10:39.021Z,173.45
2023-03-03T04:13:05.807Z,170.07
2023-03-03T04:15:32.658Z,118.10
2023-03-03T04:17:59.492Z,129.27
2023-03-03T04:20:26.775Z,157.05
2023-03-03T04:22:53.588Z,233.27
2023-03-03T04:25:20.452Z,267.90
2023-03-03T04:27:47.207Z,146.75
2023-03-03T04:30:15.947Z,62.72
2023-03-03T04:32:42.997Z,173.38
2023-03-03T04:35:10.814Z,143.23
2023-03-03T04:37:38.988Z,133.75
2023-03-03T04:40:07.746Z,147.60
2023-03-03T04:42:35.279Z,117.85
2023-03-03T04:45:02.250Z,158.38
2023-03-03T04:47:28.998Z,114.45
2023-03-03T04:49:55.797Z,66.13
2023-03-03T04:52:22.552Z,124.68
2023-03-03T04:54:49.295Z,112.75
2023-03-03T04:57:16.080Z,66.75
2023-03-03T04:59:42.927Z,126.45
2023-03-03T05:02:09.716Z,79.35
2023-03-03T05:04:36.929Z,198.35
2023-03-03T05:07:04.080Z,93.88
2023-03-03T05:09:31.102Z,159.80
2023-03-03T05:11:57.882Z,111.43
2023-03-03T05:14:24.731Z,167.18
2023-03-03T05:16:51.629Z,114.00
2023-03-03T05:19:18.478Z,144.90
2023-03-03T05:21:45.377Z,100.97
2023-03-03T05:24:13.945Z,137.10
2023-03-03T05:26:41.140Z,151.27
2023-03-03T05:29:08.556Z,110.68
2023-03-03T05:32:10.199Z,108.03
2023-03-03T05:34:37.060Z,66.72
2023-03-03T05:37:05.515Z,150.23
2023-03-03T05:39:32.873Z,77.60
2023-03-03T05:42:00.272Z,129.30
2023-03-03T05:44:27.593Z,130.68
2023-03-03T05:46:56.608Z,149.82
2023-03-03T05:49:23.587Z,163.98
2023-03-03T05:51:50.427Z,141.98
2023-03-03T05:54:17.172Z,117.65
2023-03-03T05:56:43.942Z,93.53
2023-03-03T05:59:10.721Z,227.75
2023-03-03T06:01:37.574Z,105.45
2023-03-03T06:04:04.444Z,162.40
2023-03-03T06:06:31.314Z,240.23
2023-03-03T06:08:58.030Z,151.82
2023-03-03T06:11:24.891Z,96.78
2023-03-03T06:13:51.696Z,98.47
2023-03-03T06:16:19.104Z,106.93
2023-03-03T06:18:46.066Z,164.38
2023-03-03T06:21:12.855Z,265.73
2023-03-03T06:23:39.766Z,113.82
2023-03-03T06:26:06.706Z,113.47
2023-03-03T06:28:33.598Z,123.63
2023-03-03T06:31:00.402Z,148.77
2023-03-03T06:37:07.360Z,82.78
2023-03-03T06:39:34.174Z,119.47
2023-03-03T06:42:01.047Z,120.10
2023-03-03T06:44:28.960Z,133.43
2023-03-03T06:46:57.991Z,134.15
2023-03-03T06:49:24.872Z,145.95
2023-03-03T06:51:51.718Z,76.82
2023-03-03T06:54:21.197Z,140.73
2023-03-03T06:56:49.843Z,145.02
2023-03-03T06:59:17.842Z,117.63
2023-03-03T07:01:46.644Z,80.47
2023-03-03T07:04:19.849Z,133.02
2023-03-03T07:06:46.717Z,154.73
2023-03-03T07:09:23.979Z,98.43
2023-03-03T07:11:52.553Z,147.10
2023-03-03T07:14:20.874Z,152.27
2023-03-03T07:16:51.661Z,208.35
2023-03-03T07:19:23.597Z,118.07
2023-03-03T07:21:51.820Z,108.70
2023-03-03T07:24:18.586Z,120.25
2023-03-03T07:26:45.453Z,134.80
2023-03-03T07:29:30.586Z,95.30
2023-03-03T07:31:59.276Z,179.73
2023-03-03T07:34:47.679Z,86.28
2023-03-03T07:37:36.118Z,210.95
2023-03-03T07:40:22.148Z,103.13
2023-03-03T07:42:49.634Z,133.95
2023-03-03T07:45:32.440Z,85.57
2023-03-03T07:48:25.153Z,244.00
2023-03-03T07:50:52.187Z,140.13
2023-03-03T07:53:29.065Z,152.10
2023-03-03T07:55:56.374Z,109.85
2023-03-03T07:58:33.861Z,175.35
2023-03-03T08:01:42.558Z,175.52
2023-03-03T08:04:17.510Z,124.78
2023-03-03T08:09:29.752Z,73.88
2023-03-03T08:12:27.809Z,127.68
2023-03-03T08:14:56.596Z,171.18
2023-03-03T08:17:26.598Z,113.78
2023-03-03T08:19:55.336Z,139.13
2023-03-03T08:22:37.853Z,154.65
2023-03-03T08:25:04.962Z,98.47
2023-03-03T08:27:31.723Z,115.05
2023-03-03T08:29:58.466Z,131.13
2023-03-03T08:32:25.453Z,94.68
2023-03-03T08:34:52.450Z,136.55
2023-03-03T08:37:19.236Z,139.82
2023-03-03T08:39:46.112Z,110.40
2023-03-03T08:42:15.236Z,117.18
2023-03-03T08:44:43.072Z,86.97
2023-03-03T08:47:09.902Z,174.07
2023-03-03T08:49:36.643Z,62.15
2023-03-03T08:52:03.887Z,122.25
2023-03-03T08:54:30.770Z,91.63
2023-03-03T08:56:57.534Z,103.50
2023-03-03T08:59:24.280Z,60.50
2023-03-03T09:01:51.054Z,75.20
2023-03-03T09:04:17.942Z,65.55
2023-03-03T09:06:44.748Z,124.88
2023-03-03T09:09:11.576Z,74.13
2023-03-03T09:11:38.623Z,99.80
2023-03-03T09:14:14.476Z,75.95
2023-03-03T09:16:51.835Z,90.80
2023-03-03T09:19:32.526Z,67.13
2023-03-03T09:22:18.379Z,91.55
2023-03-03T09:24:47.495Z,74.28
2023-03-03T09:27:41.569Z,63.88
2023-03-03T09:30:42.638Z,66.03
2023-03-03T09:33:24.442Z,61.45
2023-03-03T09:36:11.441Z,59.17
2023-03-03T09:38:43.759Z,56.80
2023-03-03T09:41:35.279Z,60.45
2023-03-03T09:44:12.146Z,55.97
2023-03-03T09:47:09.556Z,75.97
2023-03-03T09:50:02.661Z,67.55
2023-03-03T09:52:51.354Z,61.70
2023-03-03T09:55:47.069Z,67.93
2023-03-03T09:58:19.702Z,56.25
2023-03-03T10:01:07.643Z,68.40
2023-03-03T10:03:46.561Z,63.05
2023-03-03T10:06:16.199Z,69.97
2023-03-03T10:08:58.132Z,65.20
2023-03-03T10:11:46.730Z,65.45
2023-03-03T10:14:35.500Z,65.82
2023-03-03T10:17:09.303Z,61.05
2023-03-03T10:19:41.210Z,60.55
2023-03-03T10:22:30.285Z,64.22
2023-03-03T10:25:32.430Z,56.72
2023-03-03T10:28:08.171Z,50.42
2023-03-03T10:31:04.742Z,60.45
2023-03-03T10:33:43.025Z,61.03
2023-03-03T10:36:09.992Z,55.25
2023-03-03T10:39:11.854Z,54.83
2023-03-03T10:41:38.646Z,53.25
2023-03-03T10:44:29.519Z,58.42
2023-03-03T10:47:17.399Z,58.78
2023-03-03T10:49:52.963Z,58.50
2023-03-03T10:52:40.028Z,58.15
2023-03-03T10:55:19.108Z,55.88
2023-03-03T11:20:25.503Z,40.38
2023-03-03T11:23:23.176Z,38.95
2023-03-03T11:26:02.176Z,37.30
2023-03-03T11:28:46.892Z,34.35
2023-03-03T11:31:28.785Z,34.87
2023-03-03T11:34:19.972Z,39.08
2023-03-03T11:37:00.568Z,35.72
2023-03-03T11:39:27.778Z,34.08
2023-03-03T11:42:24.017Z,32.45
2023-03-03T11:44:59.729Z,33.30
2023-03-03T11:47:39.395Z,34.00
2023-03-03T11:50:15.038Z,29.75
2023-03-03T11:53:06.120Z,33.58
2023-03-03T11:55:41.899Z,33.45
2023-03-03T11:58:39.075Z,37.35
2023-03-03T12:01:29.882Z,32.60
2023-03-03T12:04:21.059Z,32.35
2023-03-03T12:07:12.853Z,27.30
2023-03-03T12:09:56.400Z,29.88
2023-03-03T12:15:32.909Z,29.00
2023-03-03T12:18:11.621Z,27.33
2023-03-03T12:20:56.344Z,31.52
2023-03-03T12:23:36.907Z,28.30
2023-03-03T12:26:06.672Z,29.88
2023-03-03T12:28:42.279Z,30.23
2023-03-03T12:31:12.079Z,32.15
2023-03-03T12:33:44.436Z,24.65
2023-03-03T12:36:14.464Z,26.60
2023-03-03T12:39:01.571Z,23.65
2023-03-03T12:41:46.467Z,25.27
2023-03-03T12:44:47.392Z,22.85
2023-03-03T12:47:39.265Z,25.77
2023-03-03T12:50:27.391Z,29.17
2023-03-03T12:53:12.981Z,26.63
2023-03-03T12:58:34.235Z,29.80
2023-03-03T13:01:06.748Z,25.67
2023-03-03T13:06:10.087Z,23.67
2023-03-03T13:09:17.831Z,29.48
2023-03-03T13:12:15.910Z,28.50
2023-03-03T13:15:05.192Z,28.40
2023-03-03T13:18:00.995Z,33.13
2023-03-03T13:20:50.888Z,33.03
2023-03-03T13:23:34.796Z,23.48
2023-03-03T13:26:11.665Z,22.08
2023-03-03T13:28:51.203Z,26.25
2023-03-03T13:31:25.148Z,18.65
2023-03-03T13:33:57.567Z,24.45
2023-03-03T13:36:52.331Z,22.58
2023-03-03T13:39:38.501Z,23.00
2023-03-03T13:42:29.411Z,20.63
2023-03-03T13:44:57.663Z,22.50
2023-03-03T13:47:27.424Z,19.77
2023-03-03T13:50:23.099Z,15.68
2023-03-03T13:53:37.257Z,22.67
2023-03-03T13:56:39.467Z,13.77
2023-03-03T13:59:21.609Z,16.60
2023-03-03T14:02:08.653Z,11.38
2023-03-03T14:05:00.849Z,13.80
2023-03-03T14:07:37.424Z,16.90
2023-03-03T14:10:30.253Z,12.00
2023-03-03T14:13:13.080Z,12.20
2023-03-03T14:16:05.803Z,16.75
2023-03-03T14:18:56.745Z,12.75
2023-03-03T14:21:53.863Z,13.57
2023-03-03T14:24:23.075Z,16.88
2023-03-03T14:26:53.051Z,13.82
2023-03-03T14:29:29.177Z,10.60
2023-03-03T14:31:57.863Z,11.80
2023-03-03T14:34:33.683Z,19.25
2023-03-03T14:37:26.244Z,10.80
2023-03-03T14:40:22.324Z,16.38
2023-03-03T14:42:49.172Z,14.68
2023-03-03T14:45:30.859Z,13.85
2023-03-03T14:47:58.207Z,18.48
2023-03-03T14:50:50.580Z,16.92
2023-03-03T14:53:32.321Z,17.52
2023-03-03T14:56:33.715Z,97.28
2023-03-03T14:59:20.630Z,27.98
2023-03-03T15:01:47.905Z,21.58
2023-03-03T15:04:14.672Z,15.30
2023-03-03T15:06:45.500Z,14.98
2023-03-03T15:09:35.630Z,14.90
2023-03-03T15:12:18.291Z,20.05
2023-03-03T15:14:48.003Z,18.98
2023-03-03T15:17:23.762Z,14.80
2023-03-03T15:20:24.506Z,16.85
2023-03-03T15:22:51.327Z,26.65
2023-03-03T15:25:53.204Z,18.20
2023-03-03T15:28:33.160Z,18.90
2023-03-03T15:31:21.517Z,18.98
2023-03-03T15:34:06.570Z,21.20
2023-03-03T15:36:44.706Z,16.75
2023-03-03T15:39:37.126Z,13.80
2023-03-03T15:42:23.936Z,12.43
2023-03-03T15:45:08.670Z,18.65
2023-03-03T15:48:06.263Z,16.60
2023-03-03T15:50:48.394Z,15.35
2023-03-03T15:53:32.984Z,16.60
2023-03-03T15:56:33.024Z,15.52
2023-03-03T15:59:31.345Z,18.08
2023-03-03T16:02:25.590Z,17.77
2023-03-03T16:05:34.734Z,17.95
2023-03-03T16:08:16.175Z,11.10
2023-03-03T16:11:10.627Z,14.68
2023-03-03T16:13:51.590Z,14.00
2023-03-03T16:16:33.564Z,12.05
2023-03-03T16:19:07.717Z,18.10
2023-03-03T16:21:49.435Z,17.80
2023-03-03T16:24:53.314Z,16.48
2023-03-03T16:27:46.627Z,16.25
2023-03-03T16:30:36.949Z,14.05
2023-03-03T16:33:37.826Z,9.98
2023-03-03T16:36:18.106Z,20.35
2023-03-03T16:39:06.581Z,13.43
2023-03-03T16:42:08.530Z,17.02
2023-03-03T16:45:03.904Z,9.90
2023-03-03T16:47:42.882Z,61.42
2023-03-03T16:50:34.368Z,101.85
2023-03-03T16:55:36.341Z,27.17
2023-03-03T16:58:33.902Z,14.18
2023-03-03T17:01:14.885Z,14.75
2023-03-03T17:03:59.790Z,14.98
2023-03-03T17:06:49.560Z,15.80
2023-03-03T17:09:39.737Z,17.10
2023-03-03T17:12:33.832Z,17.45
2023-03-03T17:15:33.366Z,17.58
2023-03-03T17:18:38.821Z,13.30
2023-03-03T17:21:31.531Z,17.67
2023-03-03T17:24:01.086Z,18.42
2023-03-03T17:26:42.608Z,14.32
2023-03-03T17:29:28.038Z,10.68
2023-03-03T17:32:13.852Z,12.60
2023-03-03T17:34:55.652Z,16.42
2023-03-03T17:37:38.403Z,20.45
2023-03-03T17:43:33.126Z,14.65
2023-03-03T17:46:04.620Z,15.95
2023-03-03T17:48:40.848Z,18.40
2023-03-03T17:51:22.630Z,14.88
2023-03-03T17:54:05.746Z,11.95
2023-03-03T17:56:43.873Z,20.48
2023-03-03T17:59:37.330Z,13.70
2023-03-03T18:02:19.551Z,12.85
2023-03-03T18:04:57.932Z,12.25
2023-03-03T18:07:27.747Z,12.15
2023-03-03T18:10:06.625Z,12.73
2023-03-03T18:13:11.070Z,16.80
2023-03-03T18:16:14.757Z,23.40
2023-03-03T18:18:41.463Z,18.08
2023-03-03T18:21:17.072Z,12.98
2023-03-03T18:23:45.868Z,19.60
2023-03-03T18:26:45.289Z,18.33
2023-03-03T18:29:22.517Z,21.67
2023-03-03T18:32:00.021Z,13.80
2023-03-03T18:34:41.733Z,13.05
2023-03-03T18:37:29.814Z,16.90
2023-03-03T18:40:02.654Z,17.67
2023-03-03T18:42:45.668Z,12.40
2023-03-03T18:45:19.351Z,18.48
2023-03-03T18:48:01.704Z,12.95
2023-03-03T18:50:35.328Z,20.92
2023-03-03T18:53:11.031Z,18.42
2023-03-03T18:55:44.865Z,18.15
2023-03-03T18:58:14.440Z,13.05
2023-03-03T19:00:55.014Z,15.23
2023-03-03T19:03:26.413Z,19.38
2023-03-03T19:06:00.183Z,19.20
2023-03-03T19:08:46.201Z,17.70
2023-03-03T19:11:41.028Z,22.65
2023-03-03T19:14:27.649Z,25.70
2023-03-03T19:16:56.542Z,21.20
2023-03-03T19:19:33.675Z,20.73
2023-03-03T19:22:21.731Z,15.82
2023-03-03T19:25:09.701Z,16.55
2023-03-03T19:27:57.597Z,18.77
2023-03-03T19:30:57.774Z,26.15
2023-03-03T19:33:42.505Z,26.23
2023-03-03T19:36:23.122Z,22.40
2023-03-03T19:39:00.443Z,29.70
2023-03-03T19:41:42.797Z,43.40
2023-03-03T19:44:15.418Z,36.63
2023-03-03T19:47:03.321Z,28.73
2023-03-03T19:49:50.630Z,42.92
2023-03-03T19:52:37.012Z,36.45
2023-03-03T19:55:15.727Z,25.88
2023-03-03T19:57:48.039Z,34.35
2023-03-03T20:00:20.763Z,25.80
2023-03-03T20:02:59.903Z,49.22
2023-03-03T20:05:29.973Z,20.90
2023-03-03T20:08:32.148Z,22.55
2023-03-03T20:11:15.953Z,25.90
2023-03-03T20:14:08.242Z,26.85
2023-03-03T20:16:41.723Z,31.20
2023-03-03T20:19:50.496Z,39.55
2023-03-03T20:22:47.862Z,30.92
2023-03-03T20:25:36.520Z,49.10
2023-03-03T20:31:43.521Z,26.42
2023-03-03T20:34:20.478Z,26.38
2023-03-03T20:37:11.959Z,44.10
2023-03-03T20:40:01.809Z,41.13
2023-03-03T20:42:31.752Z,38.95
2023-03-03T20:48:51.976Z,40.35
2023-03-03T20:51:21.812Z,39.92
2023-03-03T21:00:28.763Z,39.67
2023-03-03T21:03:21.841Z,39.15
2023-03-03T21:06:04.219Z,29.38
2023-03-03T21:08:49.744Z,29.42
2023-03-03T21:11:19.502Z,31.08
2023-03-03T21:13:54.241Z,32.45
2023-03-03T21:16:21.265Z,25.90
2023-03-03T21:19:09.022Z,42.63
2023-03-03T21:21:38.539Z,26.33
2023-03-03T21:24:06.475Z,34.53
2023-03-03T21:26:59.300Z,46.15
2023-03-03T21:29:31.942Z,31.40
2023-03-03T21:32:00.899Z,37.97
2023-03-03T21:34:41.746Z,29.38
2023-03-03T21:37:15.498Z,32.58
2023-03-03T21:39:43.783Z,34.83
2023-03-03T21:42:18.792Z,36.78
2023-03-03T21:47:15.331Z,30.08
2023-03-03T21:49:43.993Z,25.42
2023-03-03T21:52:12.461Z,39.13
2023-03-03T21:55:01.144Z,51.97
2023-03-03T21:57:27.937Z,37.05
2023-03-03T21:59:54.769Z,34.85
2023-03-03T22:02:21.632Z,37.58
2023-03-03T22:04:48.422Z,37.60
2023-03-03T22:07:15.235Z,50.38
2023-03-03T22:09:42.091Z,31.38
2023-03-03T22:12:08.842Z,32.60
2023-03-03T22:14:35.678Z,40.30
2023-03-03T22:17:02.937Z,32.17
2023-03-03T22:19:29.831Z,43.60
2023-03-03T22:21:57.075Z,28.50
2023-03-03T22:24:23.837Z,28.77
2023-03-03T22:26:50.617Z,51.17
2023-03-03T22:29:22.661Z,45.92
2023-03-03T22:31:50.717Z,39.20
2023-03-03T22:34:17.728Z,35.45
2023-03-03T22:36:44.556Z,29.83
2023-03-03T22:39:11.329Z,31.27
2023-03-03T22:41:38.125Z,27.08
2023-03-03T22:44:05.059Z,48.90
2023-03-03T22:46:31.878Z,27.08
2023-03-03T22:48:58.669Z,38.20
2023-03-03T22:51:26.168Z,50.65
2023-03-03T22:53:53.076Z,36.10
2023-03-03T22:56:19.840Z,52.92
2023-03-03T22:58:46.596Z,25.15
2023-03-03T23:01:13.357Z,40.58
2023-03-03T23:03:40.328Z,42.45
2023-03-03T23:06:07.270Z,33.53
2023-03-03T23:08:34.068Z,27.77
2023-03-03T23:11:00.959Z,44.80
2023-03-03T23:13:27.738Z,32.13
2023-03-03T23:15:58.422Z,40.63
2023-03-03T23:18:25.627Z,37.80
2023-03-03T23:20:52.513Z,35.83
2023-03-03T23:23:19.242Z,32.10
2023-03-03T23:25:46.074Z,38.55
2023-03-03T23:28:15.612Z,47.55
2023-03-03T23:30:43.051Z,37.45
2023-03-03T23:33:09.998Z,32.85
2023-03-03T23:35:36.838Z,31.52
2023-03-03T23:38:03.689Z,25.95
2023-03-03T23:40:30.504Z,44.33
2023-03-03T23:42:57.282Z,30.20
2023-03-03T23:45:24.112Z,32.50
2023-03-03T23:47:50.871Z,37.25
2023-03-03T23:50:17.822Z,35.08
2023-03-03T23:52:44.693Z,35.47
2023-03-03T23:55:11.553Z,29.08
2023-03-03T23:57:38.459Z,27.98
